Terminal Aerodrome Forecast
Issued by NWS Springfield, MO

Home | Current Version | Previous Version | Text Only | Print | Product List | Glossary On
Versions: 1 2 3 4 5 6 7 8 9 10 11 12 13 14 15 16 17 18 19 20
000
FTUS43 KSGF 242000 AAA
TAFSGF
TAF AMD
KSGF 242045Z 2421/2518 15015G25KT P6SM SCT025 OVC250
     FM250300 16015G24KT P6SM VCTS SCT010CB OVC040 WS020/20040KT
     FM251200 20012KT P6SM BKN050 OVC100
     FM251500 24015G22KT P6SM SKC=

USA.gov is the U.S. government's official web portal to all federal, state and local government web resources and services.